Time;durP1;ratioP1;P1;durP2;ratioP2;P2;SDS_P1;SDS_P2;PMS_P1;PMS_P2;Temp;Humidity;BMP_temperature;BMP_pressure;BME280_temperature;BME280_humidity;BME280_pressure;Samples;Min_cycle;Max_cycle;Signal;HPM_P1;HPM_P2
2022/08/14 00:02:01;;;;;;;;;;;;;;;;;;10588364;28;19924;-58
2022/08/14 00:07:04;;;;;;;;;;;;;;;;;;10586819;28;19923;-58
2022/08/14 00:12:07;;;;;;;;;;;;;;;;;;10586463;28;19946;-58
2022/08/14 00:17:11;;;;;;;;;;;;;;;;;;10587152;28;19931;-58
2022/08/14 00:22:17;;;;;;;;;;;;;;;;;;10587419;28;19924;-58
2022/08/14 00:27:39;;;;;;;;;;;;;;;;;;10587224;28;19927;-59
2022/08/14 00:32:41;;;;;;;;;;;;;;;;;;10584886;28;19924;-58
2022/08/14 00:37:51;;;;;;;;;;;;;;;;;;10586536;28;19924;-58
2022/08/14 00:42:54;;;;;;;;;;;;;;;;;;10584498;28;19931;-58
2022/08/14 00:47:57;;;;;;;;;;;;;;;;;;10586553;28;19924;-58
2022/08/14 00:53:01;;;;;;;;;;;;;;;;;;10584824;28;19923;-58
2022/08/14 01:03:34;;;;;;;;;;;;;;;;;;10584411;28;20274;-58
2022/08/14 01:08:37;;;;;;;;;;;;;;;;;;10582839;28;19923;-58
2022/08/14 01:13:59;;;;;;;;;;;;;;;;;;10584928;28;19984;-58
2022/08/14 01:24:23;;;;;;;;;;;;;;;;;;10582620;28;20321;-59
2022/08/14 01:29:36;;;;;;;;;;;;;;;;;;10582652;28;19934;-59
2022/08/14 01:34:58;;;;;;;;;;;;;;;;;;10584022;28;19924;-59
2022/08/14 01:40:22;;;;;;;;;;;;;;;;;;10584801;28;19972;-59
2022/08/14 01:45:27;;;;;;;;;;;;;;;;;;10583736;28;20003;-59
2022/08/14 01:50:33;;;;;;;;;;;;;;;;;;10581973;28;19924;-59
2022/08/14 01:55:37;;;;;;;;;;;;;;;;;;10565267;28;19951;-59
2022/08/14 02:00:39;;;;;;;;;;;;;;;;;;10583553;28;19924;-59
2022/08/14 02:05:41;;;;;;;;;;;;;;;;;;10582791;28;19931;-59
2022/08/14 02:10:43;;;;;;;;;;;;;;;;;;10580136;28;19924;-59
2022/08/14 02:15:48;;;;;;;;;;;;;;;;;;10581351;28;19959;-59
2022/08/14 02:20:51;;;;;;;;;;;;;;;;;;10582899;28;19927;-58
2022/08/14 02:25:53;;;;;;;;;;;;;;;;;;10582885;28;19931;-59
2022/08/14 02:30:56;;;;;;;;;;;;;;;;;;10578874;28;19928;-59
2022/08/14 02:35:58;;;;;;;;;;;;;;;;;;10582592;28;19931;-59
2022/08/14 02:41:20;;;;;;;;;;;;;;;;;;10582282;28;19924;-59
2022/08/14 02:46:22;;;;;;;;;;;;;;;;;;10580032;28;19938;-59
2022/08/14 02:51:28;;;;;;;;;;;;;;;;;;10567133;28;20011;-59
2022/08/14 02:56:31;;;;;;;;;;;;;;;;;;10582299;28;19930;-59
2022/08/14 03:01:53;;;;;;;;;;;;;;;;;;10581319;28;20320;-59
2022/08/14 03:06:55;;;;;;;;;;;;;;;;;;10579684;28;20359;-59
2022/08/14 03:12:09;;;;;;;;;;;;;;;;;;10579008;28;20402;-59
2022/08/14 03:17:12;;;;;;;;;;;;;;;;;;10581083;28;19931;-59
2022/08/14 03:22:15;;;;;;;;;;;;;;;;;;10581025;28;20001;-58
2022/08/14 03:27:18;;;;;;;;;;;;;;;;;;10580308;28;19945;-59
2022/08/14 03:32:23;;;;;;;;;;;;;;;;;;10579457;28;19924;-59
2022/08/14 03:37:32;;;;;;;;;;;;;;;;;;10580027;28;20373;-59
2022/08/14 03:42:54;;;;;;;;;;;;;;;;;;10580728;28;20340;-59
2022/08/14 03:47:56;;;;;;;;;;;;;;;;;;10588721;28;19927;-59
2022/08/14 03:53:02;;;;;;;;;;;;;;;;;;10587873;28;19924;-59
2022/08/14 03:58:04;;;;;;;;;;;;;;;;;;10588699;28;19971;-59
2022/08/14 04:03:07;;;;;;;;;;;;;;;;;;10587434;28;19924;-59
2022/08/14 04:08:09;;;;;;;;;;;;;;;;;;10585484;27;19932;-59
2022/08/14 04:13:24;;;;;;;;;;;;;;;;;;10545152;28;19931;-58
2022/08/14 04:18:29;;;;;;;;;;;;;;;;;;10544660;28;19924;-58
2022/08/14 04:23:32;;;;;;;;;;;;;;;;;;10552532;28;19930;-58
2022/08/14 04:28:35;;;;;;;;;;;;;;;;;;10584080;28;19939;-59
2022/08/14 04:33:57;;;;;;;;;;;;;;;;;;10587175;28;19972;-59
2022/08/14 04:44:20;;;;;;;;;;;;;;;;;;10585651;28;19967;-59
2022/08/14 04:49:27;;;;;;;;;;;;;;;;;;10585395;27;19966;-59
2022/08/14 04:54:29;;;;;;;;;;;;;;;;;;10586016;28;19931;-58
2022/08/14 04:59:32;;;;;;;;;;;;;;;;;;10584061;28;19923;-59
2022/08/14 05:04:35;;;;;;;;;;;;;;;;;;10585787;28;19931;-59
2022/08/14 05:09:40;;;;;;;;;;;;;;;;;;10583388;28;19924;-58
2022/08/14 05:14:45;;;;;;;;;;;;;;;;;;10585389;28;19924;-58
2022/08/14 05:19:54;;;;;;;;;;;;;;;;;;10585146;28;19928;-59
2022/08/14 05:25:18;;;;;;;;;;;;;;;;;;10584000;27;19988;-59
2022/08/14 05:30:21;;;;;;;;;;;;;;;;;;10582682;28;19930;-59
2022/08/14 05:35:23;;;;;;;;;;;;;;;;;;10583245;28;19930;-59
2022/08/14 05:40:25;;;;;;;;;;;;;;;;;;10583702;28;20363;-59
2022/08/14 05:45:28;;;;;;;;;;;;;;;;;;10581657;28;20290;-58
2022/08/14 05:50:30;;;;;;;;;;;;;;;;;;10581663;28;19950;-58
2022/08/14 05:55:32;;;;;;;;;;;;;;;;;;10583164;28;19924;-59
2022/08/14 06:00:34;;;;;;;;;;;;;;;;;;10575787;28;19924;-59
2022/08/14 06:05:40;;;;;;;;;;;;;;;;;;10582663;28;19930;-59
2022/08/14 06:10:42;;;;;;;;;;;;;;;;;;10582507;28;19989;-58
2022/08/14 06:15:44;;;;;;;;;;;;;;;;;;10582403;28;20371;-58
2022/08/14 06:20:46;;;;;;;;;;;;;;;;;;10570069;28;19934;-58
2022/08/14 06:25:48;;;;;;;;;;;;;;;;;;10561901;28;19928;-58
2022/08/14 06:30:53;;;;;;;;;;;;;;;;;;10561670;28;20398;-59
2022/08/14 06:35:55;;;;;;;;;;;;;;;;;;10570308;28;19931;-59
2022/08/14 06:40:57;;;;;;;;;;;;;;;;;;10568884;28;19934;-58
2022/08/14 06:46:00;;;;;;;;;;;;;;;;;;10581088;28;19923;-58
2022/08/14 06:51:02;;;;;;;;;;;;;;;;;;10580201;28;19924;-58
2022/08/14 06:56:04;;;;;;;;;;;;;;;;;;10578039;28;19977;-58
2022/08/14 07:06:29;;;;;;;;;;;;;;;;;;10581408;28;19928;-58
2022/08/14 07:11:46;;;;;;;;;;;;;;;;;;10579143;28;19927;-58
2022/08/14 07:16:48;;;;;;;;;;;;;;;;;;10580068;28;19924;-58
2022/08/14 07:21:50;;;;;;;;;;;;;;;;;;10587130;28;19924;-60
2022/08/14 07:26:52;;;;;;;;;;;;;;;;;;10575337;28;19924;-60
2022/08/14 07:31:54;;;;;;;;;;;;;;;;;;10583775;28;20022;-60
2022/08/14 07:36:56;;;;;;;;;;;;;;;;;;10589487;28;19928;-60
2022/08/14 07:42:02;;;;;;;;;;;;;;;;;;10588815;28;20306;-65
2022/08/14 07:47:04;;;;;;;;;;;;;;;;;;10583887;27;20287;-65
2022/08/14 07:52:06;;;;;;;;;;;;;;;;;;10586215;28;19931;-65
2022/08/14 07:57:09;;;;;;;;;;;;;;;;;;10588794;28;19931;-65
2022/08/14 08:02:14;;;;;;;;;;;;;;;;;;10587770;28;19923;-66
2022/08/14 08:07:20;;;;;;;;;;;;;;;;;;10586334;28;19924;-65
2022/08/14 08:12:22;;;;;;;;;;;;;;;;;;10584950;28;19939;-66
2022/08/14 08:17:29;;;;;;;;;;;;;;;;;;10552887;28;19967;-65
2022/08/14 08:22:37;;;;;;;;;;;;;;;;;;10587068;28;20497;-66
2022/08/14 08:27:39;;;;;;;;;;;;;;;;;;10582901;28;19924;-66
2022/08/14 08:32:45;;;;;;;;;;;;;;;;;;10488312;22;19929;-67
2022/08/14 08:37:47;;;;;;;;;;;;;;;;;;10461001;28;20376;-66
2022/08/14 08:42:50;;;;;;;;;;;;;;;;;;10458588;28;20007;-67
2022/08/14 08:47:53;;;;;;;;;;;;;;;;;;10460577;28;19928;-67
2022/08/14 08:52:55;;;;;;;;;;;;;;;;;;10457337;28;20375;-67
2022/08/14 08:57:57;;;;;;;;;;;;;;;;;;10457567;28;20291;-67
2022/08/14 09:03:01;;;;;;;;;;;;;;;;;;10460558;28;19925;-67
2022/08/14 09:08:03;;;;;;;;;;;;;;;;;;10459751;28;19925;-67
2022/08/14 09:13:05;;;;;;;;;;;;;;;;;;10459877;28;19932;-67
2022/08/14 09:18:07;;;;;;;;;;;;;;;;;;10458740;28;19925;-67
2022/08/14 09:23:09;;;;;;;;;;;;;;;;;;10457683;28;20333;-67
2022/08/14 09:28:11;;;;;;;;;;;;;;;;;;10458300;28;19925;-67
2022/08/14 09:33:13;;;;;;;;;;;;;;;;;;10459355;28;20282;-67
2022/08/14 09:38:15;;;;;;;;;;;;;;;;;;10458600;28;20008;-67
2022/08/14 09:43:28;;;;;;;;;;;;;;;;;;10477685;28;19931;-68
2022/08/14 09:48:30;;;;;;;;;;;;;;;;;;10469465;28;19928;-67
2022/08/14 09:53:32;;;;;;;;;;;;;;;;;;10456477;28;19931;-67
2022/08/14 09:58:54;;;;;;;;;;;;;;;;;;10455896;28;19929;-67
2022/08/14 10:03:58;;;;;;;;;;;;;;;;;;10457687;28;19925;-67
2022/08/14 10:09:00;;;;;;;;;;;;;;;;;;10451060;28;19925;-67
2022/08/14 10:14:05;;;;;;;;;;;;;;;;;;10456698;28;19932;-68
2022/08/14 10:19:07;;;;;;;;;;;;;;;;;;10456869;28;19925;-68
2022/08/14 10:24:10;;;;;;;;;;;;;;;;;;10439491;28;19924;-67
2022/08/14 10:29:16;;;;;;;;;;;;;;;;;;10457352;28;19932;-68
2022/08/14 10:34:20;;;;;;;;;;;;;;;;;;10457486;28;19931;-68
2022/08/14 10:39:26;;;;;;;;;;;;;;;;;;10457444;28;19932;-68
2022/08/14 10:44:29;;;;;;;;;;;;;;;;;;10457251;28;19976;-68
2022/08/14 10:49:32;;;;;;;;;;;;;;;;;;10457251;28;19944;-68
2022/08/14 10:54:35;;;;;;;;;;;;;;;;;;10459990;28;20011;-68
2022/08/14 10:59:41;;;;;;;;;;;;;;;;;;10465454;28;20012;-68
2022/08/14 11:04:44;;;;;;;;;;;;;;;;;;10465341;28;19964;-68
2022/08/14 11:09:46;;;;;;;;;;;;;;;;;;10464478;28;20442;-68
2022/08/14 11:14:48;;;;;;;;;;;;;;;;;;10464314;28;19931;-68
2022/08/14 11:19:51;;;;;;;;;;;;;;;;;;10464678;28;19925;-69
2022/08/14 11:24:55;;;;;;;;;;;;;;;;;;10464374;28;19931;-69
2022/08/14 11:29:57;;;;;;;;;;;;;;;;;;10463502;28;20386;-68
2022/08/14 11:35:04;;;;;;;;;;;;;;;;;;10463478;28;20311;-69
2022/08/14 11:40:06;;;;;;;;;;;;;;;;;;10463809;28;20346;-69
2022/08/14 11:45:09;;;;;;;;;;;;;;;;;;10463016;28;20372;-69
2022/08/14 11:50:12;;;;;;;;;;;;;;;;;;10462923;28;20352;-69
2022/08/14 11:55:14;;;;;;;;;;;;;;;;;;10463347;28;19932;-69
2022/08/14 12:00:16;;;;;;;;;;;;;;;;;;10463147;28;19929;-69
2022/08/14 12:05:20;;;;;;;;;;;;;;;;;;10462256;28;19925;-69
2022/08/14 12:10:22;;;;;;;;;;;;;;;;;;10462760;28;20008;-69
2022/08/14 12:15:28;;;;;;;;;;;;;;;;;;10461940;28;20003;-69
2022/08/14 12:20:30;;;;;;;;;;;;;;;;;;10462398;28;19929;-69
2022/08/14 12:25:33;;;;;;;;;;;;;;;;;;10461460;28;20402;-69
2022/08/14 12:30:36;;;;;;;;;;;;;;;;;;10461182;28;19932;-69
2022/08/14 12:35:43;;;;;;;;;;;;;;;;;;10444926;28;19932;-69
2022/08/14 12:40:46;;;;;;;;;;;;;;;;;;10462230;28;19932;-70
2022/08/14 12:45:48;;;;;;;;;;;;;;;;;;10461386;28;19932;-70
2022/08/14 12:50:51;;;;;;;;;;;;;;;;;;10461191;28;19924;-69
2022/08/14 12:55:53;;;;;;;;;;;;;;;;;;10461003;28;19932;-69
2022/08/14 13:01:15;;;;;;;;;;;;;;;;;;10461103;28;19974;-69
2022/08/14 13:06:23;;;;;;;;;;;;;;;;;;10460004;28;19924;-70
2022/08/14 13:11:25;;;;;;;;;;;;;;;;;;10460434;28;19960;-69
2022/08/14 13:16:27;;;;;;;;;;;;;;;;;;10459247;28;19928;-69
2022/08/14 13:21:35;;;;;;;;;;;;;;;;;;10460010;28;19925;-70
2022/08/14 13:26:59;;;;;;;;;;;;;;;;;;10459106;28;20393;-70
2022/08/14 13:32:01;;;;;;;;;;;;;;;;;;10458785;28;19925;-71
2022/08/14 13:37:05;;;;;;;;;;;;;;;;;;10459361;28;19925;-70
2022/08/14 13:42:10;;;;;;;;;;;;;;;;;;10459078;28;19931;-70
2022/08/14 13:47:15;;;;;;;;;;;;;;;;;;10458992;28;19940;-70
2022/08/14 13:52:17;;;;;;;;;;;;;;;;;;10458746;28;19936;-68
2022/08/14 13:57:39;;;;;;;;;;;;;;;;;;10458561;28;19978;-67
2022/08/14 14:02:41;;;;;;;;;;;;;;;;;;10458313;28;19932;-68
2022/08/14 14:07:45;;;;;;;;;;;;;;;;;;10457637;28;20291;-67
2022/08/14 14:12:47;;;;;;;;;;;;;;;;;;10457474;28;19935;-67
2022/08/14 14:17:57;;;;;;;;;;;;;;;;;;10458002;28;19936;-67
2022/08/14 14:22:59;;;;;;;;;;;;;;;;;;10457878;28;19939;-67
2022/08/14 14:28:04;;;;;;;;;;;;;;;;;;10456720;28;19925;-67
2022/08/14 14:33:06;;;;;;;;;;;;;;;;;;10456812;28;19925;-68
2022/08/14 14:38:24;;;;;;;;;;;;;;;;;;10457451;28;19924;-67
2022/08/14 14:43:31;;;;;;;;;;;;;;;;;;10440277;28;19925;-67
2022/08/14 14:48:33;;;;;;;;;;;;;;;;;;10456582;28;19948;-68
2022/08/14 14:53:35;;;;;;;;;;;;;;;;;;10456933;28;19999;-67
2022/08/14 14:58:39;;;;;;;;;;;;;;;;;;10456996;28;19925;-68
2022/08/14 15:03:42;;;;;;;;;;;;;;;;;;10456301;28;19932;-67
2022/08/14 15:08:45;;;;;;;;;;;;;;;;;;10456867;28;19925;-67
2022/08/14 15:13:57;;;;;;;;;;;;;;;;;;10456756;28;19933;-68
2022/08/14 15:19:00;;;;;;;;;;;;;;;;;;10456611;28;19924;-67
2022/08/14 15:24:02;;;;;;;;;;;;;;;;;;10455801;28;20360;-69
2022/08/14 15:29:05;;;;;;;;;;;;;;;;;;10456171;28;19932;-67
2022/08/14 15:34:10;;;;;;;;;;;;;;;;;;10456211;28;19975;-67
2022/08/14 15:39:32;;;;;;;;;;;;;;;;;;10456701;28;19925;-67
2022/08/14 15:44:37;;;;;;;;;;;;;;;;;;10463654;28;19925;-67
2022/08/14 15:49:46;;;;;;;;;;;;;;;;;;10463459;28;19925;-67
2022/08/14 15:54:49;;;;;;;;;;;;;;;;;;10462648;28;20295;-67
2022/08/14 16:05:12;;;;;;;;;;;;;;;;;;10462231;28;20433;-67
2022/08/14 16:10:14;;;;;;;;;;;;;;;;;;10462278;28;19925;-66
2022/08/14 16:15:30;;;;;;;;;;;;;;;;;;10461960;28;20307;-67
2022/08/14 16:20:33;;;;;;;;;;;;;;;;;;10461772;28;20276;-67
2022/08/14 16:25:43;;;;;;;;;;;;;;;;;;10461521;28;20287;-69
2022/08/14 16:30:47;;;;;;;;;;;;;;;;;;10461534;28;19925;-69
2022/08/14 16:35:50;;;;;;;;;;;;;;;;;;10461784;28;19925;-69
2022/08/14 16:41:15;;;;;;;;;;;;;;;;;;10460729;28;19947;-69
2022/08/14 16:46:18;;;;;;;;;;;;;;;;;;10461287;28;19936;-69
2022/08/14 16:51:23;;;;;;;;;;;;;;;;;;10460900;28;19924;-69
2022/08/14 16:56:25;;;;;;;;;;;;;;;;;;10460910;28;19999;-69
2022/08/14 17:01:31;;;;;;;;;;;;;;;;;;10460719;28;19925;-67
2022/08/14 17:06:34;;;;;;;;;;;;;;;;;;10460592;28;19925;-66
2022/08/14 17:11:37;;;;;;;;;;;;;;;;;;10460417;28;19974;-66
2022/08/14 17:16:40;;;;;;;;;;;;;;;;;;10459362;28;20291;-66
2022/08/14 17:21:42;;;;;;;;;;;;;;;;;;10459096;28;19925;-67
2022/08/14 17:26:49;;;;;;;;;;;;;;;;;;10459651;28;19929;-66
2022/08/14 17:31:51;;;;;;;;;;;;;;;;;;10458627;28;19924;-66
2022/08/14 17:37:01;;;;;;;;;;;;;;;;;;10459359;28;19928;-66
2022/08/14 17:42:03;;;;;;;;;;;;;;;;;;10458852;28;20299;-67
2022/08/14 17:47:14;;;;;;;;;;;;;;;;;;10458262;28;20282;-66
2022/08/14 17:52:19;;;;;;;;;;;;;;;;;;10458233;28;19925;-66
2022/08/14 17:57:38;;;;;;;;;;;;;;;;;;10458673;28;20012;-66
2022/08/14 18:02:44;;;;;;;;;;;;;;;;;;10457328;28;20418;-68
2022/08/14 18:07:52;;;;;;;;;;;;;;;;;;10441479;28;19924;-68
2022/08/14 18:13:15;;;;;;;;;;;;;;;;;;10457451;28;20356;-68
2022/08/14 18:18:18;;;;;;;;;;;;;;;;;;10440416;28;19929;-68
2022/08/14 18:23:20;;;;;;;;;;;;;;;;;;10457144;28;20315;-68
2022/08/14 18:28:22;;;;;;;;;;;;;;;;;;10457670;28;19925;-68
2022/08/14 18:33:38;;;;;;;;;;;;;;;;;;10457750;28;19925;-68
2022/08/14 18:38:43;;;;;;;;;;;;;;;;;;10457415;28;19975;-68
2022/08/14 18:43:56;;;;;;;;;;;;;;;;;;10457457;28;19932;-68
2022/08/14 18:49:00;;;;;;;;;;;;;;;;;;10457219;28;19931;-68
2022/08/14 18:54:03;;;;;;;;;;;;;;;;;;10456486;28;19925;-68
2022/08/14 18:59:05;;;;;;;;;;;;;;;;;;10457059;28;19932;-68
2022/08/14 19:04:07;;;;;;;;;;;;;;;;;;10456235;28;19983;-68
2022/08/14 19:09:09;;;;;;;;;;;;;;;;;;10456722;28;19925;-67
2022/08/14 19:14:11;;;;;;;;;;;;;;;;;;10456781;28;19932;-67
2022/08/14 19:19:14;;;;;;;;;;;;;;;;;;10464853;28;19931;-67
2022/08/14 19:24:16;;;;;;;;;;;;;;;;;;10464049;28;19948;-67
2022/08/14 19:29:29;;;;;;;;;;;;;;;;;;10464118;28;19932;-67
2022/08/14 19:34:39;;;;;;;;;;;;;;;;;;10464286;28;19925;-67
2022/08/14 19:39:41;;;;;;;;;;;;;;;;;;10445729;28;20291;-67
2022/08/14 19:44:43;;;;;;;;;;;;;;;;;;10463797;28;19983;-68
2022/08/14 19:49:46;;;;;;;;;;;;;;;;;;10463040;28;19948;-67
2022/08/14 19:55:08;;;;;;;;;;;;;;;;;;10463510;28;19928;-67
2022/08/14 20:00:13;;;;;;;;;;;;;;;;;;10463236;28;19932;-67
2022/08/14 20:05:30;;;;;;;;;;;;;;;;;;10462517;28;19929;-68
2022/08/14 20:10:44;;;;;;;;;;;;;;;;;;10462316;28;20295;-67
2022/08/14 20:16:06;;;;;;;;;;;;;;;;;;10462024;28;20292;-67
2022/08/14 20:21:08;;;;;;;;;;;;;;;;;;10462446;28;19933;-66
2022/08/14 20:26:10;;;;;;;;;;;;;;;;;;10461803;28;19925;-67
2022/08/14 20:31:12;;;;;;;;;;;;;;;;;;10461533;28;19925;-66
2022/08/14 20:36:15;;;;;;;;;;;;;;;;;;10461891;28;19925;-66
2022/08/14 20:41:17;;;;;;;;;;;;;;;;;;10461112;28;19972;-66
2022/08/14 20:46:22;;;;;;;;;;;;;;;;;;10492508;22;19928;-64
2022/08/14 20:51:24;;;;;;;;;;;;;;;;;;10484617;28;20405;-64
2022/08/14 20:56:27;;;;;;;;;;;;;;;;;;10502596;28;19931;-64
2022/08/14 21:01:32;;;;;;;;;;;;;;;;;;10502394;28;19928;-64
2022/08/14 21:06:34;;;;;;;;;;;;;;;;;;10502073;28;19929;-64
2022/08/14 21:11:56;;;;;;;;;;;;;;;;;;10501447;28;19931;-64
2022/08/14 21:17:04;;;;;;;;;;;;;;;;;;10501089;28;20334;-64
2022/08/14 21:22:06;;;;;;;;;;;;;;;;;;10501420;28;19954;-64
2022/08/14 21:27:08;;;;;;;;;;;;;;;;;;10501275;28;19925;-64
2022/08/14 21:32:31;;;;;;;;;;;;;;;;;;10501059;28;19931;-64
2022/08/14 21:37:35;;;;;;;;;;;;;;;;;;10500161;28;19931;-64
2022/08/14 21:42:37;;;;;;;;;;;;;;;;;;10500602;28;19924;-64
2022/08/14 21:47:39;;;;;;;;;;;;;;;;;;10499711;28;19935;-64
2022/08/14 21:52:44;;;;;;;;;;;;;;;;;;10500255;28;19931;-64
2022/08/14 21:57:51;;;;;;;;;;;;;;;;;;10499375;28;20039;-64
2022/08/14 22:02:57;;;;;;;;;;;;;;;;;;10482804;28;19931;-64
2022/08/14 22:07:59;;;;;;;;;;;;;;;;;;10499742;28;19928;-64
2022/08/14 22:13:03;;;;;;;;;;;;;;;;;;10498964;28;19933;-64
2022/08/14 22:18:06;;;;;;;;;;;;;;;;;;10498991;28;20023;-64
2022/08/14 22:23:08;;;;;;;;;;;;;;;;;;10499199;28;19931;-64
2022/08/14 22:28:10;;;;;;;;;;;;;;;;;;10498558;28;20006;-64
2022/08/14 22:33:12;;;;;;;;;;;;;;;;;;10499102;28;19932;-64
2022/08/14 22:38:14;;;;;;;;;;;;;;;;;;10498357;28;20334;-64
2022/08/14 22:43:36;;;;;;;;;;;;;;;;;;10497985;28;20428;-64
2022/08/14 22:48:39;;;;;;;;;;;;;;;;;;10500404;28;19971;-64
2022/08/14 22:53:41;;;;;;;;;;;;;;;;;;10511725;28;19925;-64
2022/08/14 22:58:43;;;;;;;;;;;;;;;;;;10512053;28;20012;-64
2022/08/14 23:03:45;;;;;;;;;;;;;;;;;;10511900;28;19924;-64
2022/08/14 23:08:48;;;;;;;;;;;;;;;;;;10511051;28;20359;-64
2022/08/14 23:14:03;;;;;;;;;;;;;;;;;;10511630;28;19924;-64
2022/08/14 23:19:09;;;;;;;;;;;;;;;;;;10511833;28;20015;-64
2022/08/14 23:24:12;;;;;;;;;;;;;;;;;;10511196;28;19924;-64
2022/08/14 23:29:15;;;;;;;;;;;;;;;;;;10511819;28;19924;-63
2022/08/14 23:34:18;;;;;;;;;;;;;;;;;;10511361;28;19999;-63
2022/08/14 23:39:21;;;;;;;;;;;;;;;;;;10510975;28;19925;-63
2022/08/14 23:44:25;;;;;;;;;;;;;;;;;;10511469;28;19924;-63
2022/08/14 23:49:29;;;;;;;;;;;;;;;;;;10493818;28;19925;-63
2022/08/14 23:54:51;;;;;;;;;;;;;;;;;;10510664;28;19924;-63
2022/08/14 23:59:54;;;;;;;;;;;;;;;;;;10510386;28;19938;-63
